Time;durP1;ratioP1;P1;durP2;ratioP2;P2;SDS_P1;SDS_P2;PMS_P1;PMS_P2;Temp;Humidity;BMP_temperature;BMP_pressure;BME280_temperature;BME280_humidity;BME280_pressure;Samples;Min_cycle;Max_cycle;Signal;HPM_P1;HPM_P2
2021/11/25 00:00:52;;;;;;;23.27;16.77;;;2.40;72.40;;;0.77;82.71;97633.16;4973700;28;20481;-73
2021/11/25 00:03:20;;;;;;;24.50;16.83;;;2.40;72.60;;;0.75;82.75;97629.84;4977982;28;21112;-72
2021/11/25 00:05:47;;;;;;;28.57;18.70;;;2.40;72.70;;;0.70;83.18;97632.16;4974913;28;20457;-72
2021/11/25 00:08:15;;;;;;;23.60;16.30;;;2.30;73.00;;;0.77;82.99;97621.69;4980246;28;20454;-72
2021/11/25 00:10:43;;;;;;;27.23;17.37;;;2.40;73.10;;;0.86;82.10;97626.03;4960307;28;20461;-72
2021/11/25 00:13:13;;;;;;;27.27;17.97;;;2.40;72.60;;;0.69;82.38;97619.84;4968893;28;20489;-72
2021/11/25 00:15:40;;;;;;;25.13;17.60;;;2.30;72.00;;;0.72;82.44;97616.88;4970276;28;20549;-72
2021/11/25 00:18:07;;;;;;;27.03;18.60;;;2.30;72.20;;;0.70;82.16;97619.69;4977863;28;20990;-72
2021/11/25 00:20:34;;;;;;;25.20;17.30;;;2.30;72.10;;;0.79;81.97;97609.88;4968959;28;22270;-72
2021/11/25 00:23:02;;;;;;;27.17;17.67;;;2.30;72.00;;;0.90;81.47;97611.41;4957436;28;20473;-73
2021/11/25 00:25:29;;;;;;;26.57;17.93;;;2.40;71.80;;;0.61;82.68;97611.84;4973948;28;20469;-73
2021/11/25 00:27:56;;;;;;;29.67;19.10;;;2.30;72.10;;;0.70;82.03;97602.91;4982133;28;20998;-73
2021/11/25 00:30:24;;;;;;;26.17;18.80;;;2.30;72.10;;;0.69;82.10;97614.53;4963555;28;20578;-73
2021/11/25 00:32:52;;;;;;;24.53;17.10;;;2.30;72.00;;;0.70;82.25;97616.19;4973290;28;21138;-72
2021/11/25 00:35:19;;;;;;;24.33;17.47;;;2.30;72.00;;;0.51;82.55;97612.78;4973096;28;20528;-73
2021/11/25 00:37:46;;;;;;;23.80;16.90;;;2.20;72.00;;;0.56;82.82;97609.66;4973137;28;20473;-73
2021/11/25 00:40:17;;;;;;;27.40;17.87;;;2.20;72.20;;;0.44;83.18;97611.78;4967483;28;20465;-73
2021/11/25 00:42:46;;;;;;;26.73;18.47;;;2.10;72.20;;;0.46;83.09;97614.31;4969390;28;20474;-73
2021/11/25 00:45:16;;;;;;;28.30;18.87;;;2.10;72.70;;;0.52;83.29;97608.31;4967408;28;20458;-72
2021/11/25 00:47:45;;;;;;;29.63;18.33;;;2.10;72.60;;;0.46;83.29;97608.97;4966839;28;20465;-71
2021/11/25 00:50:15;;;;;;;30.70;20.43;;;2.10;72.60;;;0.49;82.90;97606.81;4967575;28;20457;-72
2021/11/25 00:52:43;;;;;;;33.03;20.70;;;2.10;72.60;;;0.59;82.73;97600.53;4969643;28;20462;-72
2021/11/25 00:55:12;;;;;;;28.10;19.37;;;2.10;72.50;;;0.40;83.20;97589.19;4968652;28;20457;-72
2021/11/25 00:57:39;;;;;;;29.53;19.87;;;2.10;72.90;;;0.49;83.10;97588.19;4968132;28;20561;-71
2021/11/25 01:00:10;;;;;;;29.70;19.47;;;2.10;72.70;;;0.56;83.26;97593.72;4949720;28;20478;-72
2021/11/25 01:02:38;;;;;;;34.43;22.00;;;2.10;72.80;;;0.52;83.36;97593.19;4946946;28;20477;-72
2021/11/25 01:05:08;;;;;;;32.53;22.87;;;2.10;72.80;;;0.58;82.57;97590.91;4968566;28;20474;-71
2021/11/25 01:07:35;;;;;;;32.87;21.70;;;2.20;72.60;;;0.55;82.18;97576.94;4948512;28;20473;-72
2021/11/25 01:10:04;;;;;;;30.40;21.87;;;2.20;72.20;;;0.49;82.79;97595.38;4968820;28;20457;-72
2021/11/25 01:12:31;;;;;;;33.73;22.50;;;2.20;72.10;;;0.47;83.02;97584.06;4968244;28;20470;-72
2021/11/25 01:14:59;;;;;;;29.30;20.10;;;2.00;72.40;;;0.48;82.58;97575.91;4953202;28;20561;-73
2021/11/25 01:17:26;;;;;;;34.30;23.93;;;2.10;72.40;;;0.49;82.82;97580.22;4966193;28;20470;-74
2021/11/25 01:19:54;;;;;;;32.30;23.10;;;2.10;72.40;;;0.56;82.34;97581.25;4969601;28;20476;-72
2021/11/25 01:22:23;;;;;;;31.47;21.50;;;2.20;72.30;;;0.58;82.41;97570.44;4970614;28;20484;-72
2021/11/25 01:24:50;;;;;;;28.90;22.30;;;2.20;72.20;;;0.54;82.00;97569.97;4973928;28;21020;-72
2021/11/25 01:27:17;;;;;;;32.50;22.30;;;2.20;71.90;;;0.55;82.70;97576.94;4970780;28;20812;-73
2021/11/25 01:29:45;;;;;;;32.60;20.77;;;2.20;72.00;;;0.71;81.27;97567.34;4971970;28;20458;-73
2021/11/25 01:32:12;;;;;;;31.30;22.50;;;2.20;71.40;;;0.67;80.92;97584.59;4970577;28;20473;-73
2021/11/25 01:34:39;;;;;;;33.60;22.17;;;2.20;71.30;;;0.75;81.02;97581.13;4970853;28;20460;-72
2021/11/25 01:37:07;;;;;;;34.00;23.23;;;2.30;71.20;;;0.70;81.47;97578.97;4971718;28;20465;-71
2021/11/25 01:39:36;;;;;;;28.77;21.63;;;2.20;71.00;;;0.68;80.88;97580.94;4970168;28;20477;-71
2021/11/25 01:42:03;;;;;;;32.10;21.03;;;2.30;70.60;;;0.59;80.90;97565.97;4969013;28;20469;-71
2021/11/25 01:44:30;;;;;;;33.33;23.20;;;2.20;70.70;;;0.58;81.37;97556.34;4970849;28;21233;-72
2021/11/25 01:47:02;;;;;;;30.93;22.40;;;2.20;70.70;;;0.48;81.43;97564.47;4972271;28;20953;-72
2021/11/25 01:49:29;;;;;;;35.03;22.10;;;2.10;71.10;;;0.66;81.39;97559.84;4973142;28;21725;-70
2021/11/25 01:51:57;;;;;;;33.17;23.47;;;2.20;71.50;;;0.77;81.10;97561.34;4975966;28;20465;-71
2021/11/25 01:54:24;;;;;;;33.23;22.90;;;2.20;71.20;;;0.72;80.59;97561.00;4960353;28;20465;-71
2021/11/25 01:56:53;;;;;;;26.90;21.27;;;2.30;70.80;;;0.61;81.20;97553.34;4978986;28;20469;-72
2021/11/25 01:59:21;;;;;;;34.43;23.30;;;2.20;70.80;;;0.55;81.53;97550.34;4974501;28;20490;-71
2021/11/25 02:01:48;;;;;;;33.10;23.00;;;2.20;71.00;;;0.61;81.46;97548.88;4948963;28;20481;-72
2021/11/25 02:04:15;;;;;;;33.37;23.17;;;2.20;71.20;;;0.59;81.39;97550.03;4970952;28;20465;-72
2021/11/25 02:06:43;;;;;;;31.00;21.37;;;2.20;70.80;;;0.61;81.41;97538.25;4959854;28;20793;-72
2021/11/25 02:09:11;;;;;;;30.07;22.37;;;2.20;70.90;;;0.58;81.47;97530.56;4976180;28;20469;-72
2021/11/25 02:11:39;;;;;;;30.07;21.83;;;2.20;71.00;;;0.63;81.04;97522.09;4946223;28;20481;-71
2021/11/25 02:14:08;;;;;;;33.53;23.07;;;2.20;70.80;;;0.33;81.96;97529.69;4949874;28;20516;-72
2021/11/25 02:16:37;;;;;;;30.67;21.87;;;2.00;70.70;;;0.33;82.35;97513.75;4972619;28;20456;-72
2021/11/25 02:19:04;;;;;;;31.50;22.50;;;2.00;71.10;;;0.38;81.75;97511.41;4967166;28;21083;-72
2021/11/25 02:21:33;;;;;;;34.67;22.50;;;2.00;71.00;;;0.28;82.49;97500.94;4970486;28;20484;-72
2021/11/25 02:24:00;;;;;;;29.97;21.87;;;2.00;71.30;;;0.40;82.10;97506.78;4980796;28;20470;-72
2021/11/25 02:26:27;;;;;;;33.23;22.60;;;2.00;71.10;;;0.38;82.21;97506.09;4980914;28;20472;-71
2021/11/25 02:28:55;;;;;;;30.87;21.73;;;2.00;71.10;;;0.27;82.17;97501.94;4955729;28;20457;-71
2021/11/25 02:31:22;;;;;;;31.10;20.60;;;1.90;70.90;;;0.32;82.27;97501.44;4968030;28;20462;-71
2021/11/25 02:33:49;;;;;;;29.00;21.50;;;1.90;71.20;;;0.46;81.74;97497.34;4970121;28;20817;-71
2021/11/25 02:36:17;;;;;;;30.13;21.00;;;2.00;71.30;;;0.31;82.05;97491.81;4970878;28;20455;-71
2021/11/25 02:38:46;;;;;;;30.80;21.50;;;2.00;71.10;;;0.34;81.54;97472.88;4966344;28;20489;-71
2021/11/25 02:41:13;;;;;;;32.63;21.57;;;2.00;71.10;;;0.45;81.07;97477.03;4949351;28;20465;-72
2021/11/25 02:43:40;;;;;;;29.23;21.20;;;2.00;71.00;;;0.45;81.51;97491.19;4957628;28;20449;-71
2021/11/25 02:46:10;;;;;;;27.73;20.23;;;2.10;71.00;;;0.58;80.78;97495.19;4967580;28;21082;-70
2021/11/25 02:48:41;;;;;;;28.47;19.93;;;2.20;70.70;;;0.50;81.45;97491.50;4969154;28;20508;-71
2021/11/25 02:51:09;;;;;;;31.93;21.87;;;2.10;70.80;;;0.32;82.19;97480.19;4966260;28;20805;-73
2021/11/25 02:53:37;;;;;;;34.00;22.50;;;2.00;70.90;;;0.38;81.60;97474.19;4970273;28;20469;-72
2021/11/25 02:56:09;;;;;;;30.50;22.50;;;2.00;71.10;;;0.52;82.05;97476.22;4971673;28;20820;-72
2021/11/25 02:58:37;;;;;;;31.47;22.33;;;2.00;71.30;;;0.37;82.42;97473.38;4970471;28;20952;-72
2021/11/25 03:01:08;;;;;;;31.87;22.20;;;2.00;71.20;;;0.45;81.97;97469.91;4965051;28;21034;-72
2021/11/25 03:03:35;;;;;;;33.27;23.47;;;2.00;71.40;;;0.51;81.98;97466.56;4970277;28;20504;-71
2021/11/25 03:06:02;;;;;;;33.20;21.27;;;2.00;71.50;;;0.44;81.44;97468.25;4968775;28;20533;-73
2021/11/25 03:08:29;;;;;;;32.37;22.23;;;2.00;71.10;;;0.48;81.77;97466.91;4967418;28;20982;-72
2021/11/25 03:11:01;;;;;;;32.70;22.50;;;2.00;71.10;;;0.32;82.52;97450.94;4949137;28;20472;-72
2021/11/25 03:13:33;;;;;;;31.57;22.70;;;1.90;71.40;;;0.41;82.05;97463.25;4969979;28;20490;-73
2021/11/25 03:16:00;;;;;;;32.63;21.10;;;2.00;71.50;;;0.26;82.39;97473.69;4968757;28;20458;-73
2021/11/25 03:18:28;;;;;;;37.93;23.37;;;1.90;71.40;;;0.17;83.35;97466.72;4972624;28;20552;-73
2021/11/25 03:20:59;;;;;;;34.07;22.50;;;1.80;71.70;;;0.31;82.68;97462.56;4968528;28;20493;-72
2021/11/25 03:23:30;;;;;;;32.87;21.87;;;1.90;71.80;;;0.37;82.34;97461.91;4974348;28;20493;-73
2021/11/25 03:25:59;;;;;;;32.20;22.00;;;1.90;71.60;;;0.39;82.36;97465.25;4955732;28;20454;-73
2021/11/25 03:28:27;;;;;;;31.03;21.30;;;1.90;71.80;;;0.35;82.07;97463.91;4974119;28;20476;-73
2021/11/25 03:30:56;;;;;;;31.97;22.47;;;2.00;71.50;;;0.33;82.51;97472.06;4953582;28;20460;-73
2021/11/25 03:33:25;;;;;;;35.93;23.00;;;2.00;71.70;;;0.34;82.99;97456.94;4960780;28;20830;-73
2021/11/25 03:35:55;;;;;;;36.40;23.23;;;2.00;72.00;;;0.41;82.42;97455.28;4957514;28;20457;-73
2021/11/25 03:38:22;;;;;;;32.20;21.90;;;2.00;71.80;;;0.34;82.83;97451.63;4972499;28;20461;-73
2021/11/25 03:40:50;;;;;;;31.07;22.50;;;1.90;72.00;;;0.37;82.21;97441.50;4957938;28;20480;-73
2021/11/25 03:43:17;;;;;;;30.57;22.80;;;2.00;71.70;;;0.23;83.02;97435.00;4970540;28;20478;-73
2021/11/25 03:45:44;;;;;;;34.73;23.67;;;1.90;71.90;;;0.33;82.58;97424.22;4974138;28;20465;-74
2021/11/25 03:48:13;;;;;;;34.23;22.13;;;1.90;72.00;;;0.47;81.80;97428.03;4970375;28;21027;-73
2021/11/25 03:50:40;;;;;;;33.40;22.10;;;2.00;71.90;;;0.53;81.42;97407.94;4977621;28;20469;-73
2021/11/25 03:53:08;;;;;;;30.70;22.30;;;2.10;71.70;;;0.49;81.84;97417.25;4967781;28;20457;-73
2021/11/25 03:55:35;;;;;;;34.03;22.20;;;2.10;71.30;;;0.41;82.28;97426.88;4976543;28;20547;-73
2021/11/25 03:58:03;;;;;;;37.97;21.93;;;2.00;71.40;;;0.42;82.08;97430.38;4952446;28;20528;-73
2021/11/25 04:00:31;;;;;;;29.97;19.03;;;2.00;71.60;;;0.21;82.56;97426.34;4973471;28;20500;-72
2021/11/25 04:03:00;;;;;;;33.70;21.80;;;1.90;71.50;;;0.20;83.66;97423.88;4974415;28;20508;-73
2021/11/25 04:05:30;;;;;;;31.93;21.57;;;1.80;72.30;;;0.25;83.95;97417.06;4972054;28;20738;-73
2021/11/25 04:07:57;;;;;;;35.00;21.40;;;1.80;72.60;;;0.29;83.09;97417.56;4976121;28;20465;-72
2021/11/25 04:10:25;;;;;;;32.93;22.43;;;1.90;72.40;;;0.30;82.93;97424.53;4961943;28;20461;-71
2021/11/25 04:12:52;;;;;;;36.87;24.67;;;1.90;72.40;;;0.11;83.71;97415.06;4973361;28;20462;-72
2021/11/25 04:15:20;;;;;;;32.80;23.20;;;1.80;72.80;;;0.31;83.78;97420.06;4975950;28;20536;-72
2021/11/25 04:17:47;;;;;;;38.27;23.33;;;1.90;73.30;;;0.37;83.04;97419.38;4980199;28;20463;-73
2021/11/25 04:20:15;;;;;;;36.13;23.60;;;1.90;72.80;;;0.26;83.12;97418.72;4981291;28;20489;-72
2021/11/25 04:22:44;;;;;;;33.77;22.47;;;1.90;72.80;;;0.07;83.80;97405.72;4981235;28;20473;-72
2021/11/25 04:25:13;;;;;;;37.50;23.67;;;1.80;73.00;;;0.24;84.02;97410.09;4981523;28;20483;-73
2021/11/25 04:27:41;;;;;;;35.40;24.30;;;1.80;73.60;;;0.25;83.68;97408.25;4955655;28;20453;-72
2021/11/25 04:30:11;;;;;;;38.10;22.90;;;1.80;73.10;;;0.37;83.23;97409.59;4975895;28;20875;-72
2021/11/25 04:35:31;;;;;;;35.13;23.50;;;1.90;73.10;;;0.28;83.26;97390.16;4970200;28;20478;-73
2021/11/25 04:38:04;;;;;;;35.27;23.23;;;1.90;73.10;;;0.22;83.93;97409.41;4974588;28;21015;-73
2021/11/25 04:40:35;;;;;;;32.80;23.37;;;1.90;73.10;;;0.15;84.15;97405.75;4972856;28;20477;-73
2021/11/25 04:43:03;;;;;;;34.97;23.87;;;1.80;73.30;;;0.16;84.37;97391.47;4971494;28;20477;-73
2021/11/25 04:45:31;;;;;;;39.97;25.30;;;1.80;73.70;;;0.23;84.26;97397.81;4956900;28;20875;-72
2021/11/25 04:47:58;;;;;;;35.33;23.03;;;1.80;73.70;;;0.27;84.38;97385.84;4975128;28;20462;-73
2021/11/25 04:50:25;;;;;;;35.17;22.90;;;1.80;73.80;;;0.22;84.87;97382.84;4959079;28;20453;-73
2021/11/25 04:52:52;;;;;;;35.80;24.10;;;1.80;74.10;;;0.24;84.29;97382.69;4958068;28;20548;-73
2021/11/25 04:55:21;;;;;;;38.13;24.07;;;1.90;74.00;;;0.26;84.38;97381.53;4976171;28;20552;-71
2021/11/25 04:57:48;;;;;;;36.70;24.37;;;1.80;73.80;;;0.03;85.13;97375.19;4955054;28;20472;-74
2021/11/25 05:00:17;;;;;;;36.70;23.47;;;1.70;74.10;;;-0.01;85.15;97380.81;4980116;28;20482;-73
2021/11/25 05:02:44;;;;;;;35.83;23.50;;;1.70;74.40;;;-0.21;84.67;97337.81;4973549;28;20461;-73
2021/11/25 05:05:12;;;;;;;40.70;25.13;;;1.70;74.50;;;-0.04;85.99;97385.63;4978156;28;20465;-73
2021/11/25 05:07:39;;;;;;;40.83;25.10;;;1.60;74.90;;;-0.05;85.51;97374.19;4958413;28;20465;-70
2021/11/25 05:10:09;;;;;;;37.13;24.57;;;1.60;75.20;;;-0.02;85.41;97368.53;4958120;28;20513;-72
2021/11/25 05:12:37;;;;;;;38.93;24.20;;;1.70;75.10;;;0.09;85.42;97377.19;4973501;28;20496;-72
2021/11/25 05:15:07;;;;;;;36.60;24.20;;;1.70;75.40;;;0.10;85.32;97361.06;4964034;28;20961;-72
2021/11/25 05:17:34;;;;;;;42.70;24.97;;;1.70;75.30;;;0.22;85.46;97374.03;4950206;28;20458;-72
2021/11/25 05:20:04;;;;;;;38.57;23.40;;;1.80;75.00;;;0.16;84.80;97372.06;4983508;28;20476;-72
2021/11/25 05:22:31;;;;;;;36.20;23.70;;;1.80;74.80;;;-0.03;85.82;97371.34;4977244;28;20461;-72
2021/11/25 05:24:58;;;;;;;33.77;22.37;;;1.70;75.00;;;0.00;85.75;97376.38;4961306;28;20460;-73
2021/11/25 05:27:25;;;;;;;33.80;22.20;;;1.70;75.30;;;0.21;84.41;97375.84;4976642;28;20469;-72
2021/11/25 05:29:54;;;;;;;34.13;22.13;;;1.80;75.10;;;0.04;84.96;97374.19;4990776;28;20456;-73
2021/11/25 05:32:21;;;;;;;35.30;23.07;;;1.70;74.60;;;0.03;85.31;97365.41;4977114;28;20468;-73
2021/11/25 05:34:48;;;;;;;37.10;21.87;;;1.70;74.90;;;0.05;84.67;97358.09;4972691;28;20466;-72
2021/11/25 05:37:18;;;;;;;34.50;22.07;;;1.70;74.90;;;0.03;84.88;97360.09;4965463;28;20528;-73
2021/11/25 05:39:46;;;;;;;37.33;23.60;;;1.70;74.80;;;0.12;84.79;97360.94;4974980;28;20465;-70
2021/11/25 05:42:13;;;;;;;39.97;24.23;;;1.70;74.80;;;0.35;85.98;97370.88;4969645;28;20457;-70
2021/11/25 05:44:42;;;;;;;37.20;21.90;;;1.80;76.20;;;0.41;86.24;97367.56;4972013;28;20465;-70
2021/11/25 05:47:10;;;;;;;39.80;23.80;;;1.90;76.60;;;0.52;85.96;97367.22;4968548;28;20488;-69
2021/11/25 05:49:38;;;;;;;36.40;23.10;;;2.10;77.20;;;0.15;84.90;97363.25;4970830;28;21906;-69
2021/11/25 05:52:06;;;;;;;41.40;24.20;;;1.90;74.60;;;0.24;86.43;97346.31;4971973;28;20465;-70
2021/11/25 05:54:33;;;;;;;37.43;23.47;;;1.90;76.70;;;0.47;84.25;97361.59;4958794;28;20465;-71
2021/11/25 05:57:01;;;;;;;36.70;22.33;;;2.00;75.30;;;0.84;88.04;97362.88;4973062;28;20468;-70
2021/11/25 05:59:30;;;;;;;40.17;22.90;;;2.20;79.80;;;0.98;85.96;97368.47;4967942;28;21167;-71
2021/11/25 06:01:57;;;;;;;36.63;22.60;;;2.40;79.40;;;0.61;83.94;97372.53;4969539;28;20476;-71
2021/11/25 06:04:26;;;;;;;38.43;23.10;;;2.30;74.70;;;0.49;85.42;97370.22;4970764;28;20469;-71
2021/11/25 06:06:53;;;;;;;32.83;20.97;;;2.10;75.40;;;0.48;84.02;97368.56;4968262;28;20462;-72
2021/11/25 06:09:20;;;;;;;42.73;23.80;;;2.10;75.10;;;0.44;84.39;97369.91;4946972;28;20474;-72
2021/11/25 06:11:49;;;;;;;41.40;25.53;;;2.00;75.10;;;0.28;84.55;97362.75;4969409;28;20458;-73
2021/11/25 06:14:17;;;;;;;38.50;23.60;;;1.90;74.90;;;0.10;85.30;97374.38;4956809;28;21034;-71
2021/11/25 06:16:44;;;;;;;43.60;23.70;;;1.80;75.30;;;-0.02;85.60;97327.84;4971509;28;20462;-72
2021/11/25 06:19:12;;;;;;;38.87;23.37;;;1.80;76.10;;;0.23;85.12;97357.94;4953100;28;20799;-73
2021/11/25 06:21:40;;;;;;;38.97;24.53;;;1.90;75.70;;;0.12;85.34;97344.97;4954699;28;20825;-73
2021/11/25 06:24:08;;;;;;;42.97;24.93;;;1.80;76.10;;;0.55;86.12;97364.25;4954409;28;20462;-72
2021/11/25 06:26:39;;;;;;;42.70;23.20;;;2.00;77.80;;;0.16;85.29;97350.81;4972000;28;20457;-73
2021/11/25 06:29:07;;;;;;;44.10;25.67;;;1.90;75.70;;;0.25;85.42;97366.59;4968095;28;20462;-71
2021/11/25 06:31:34;;;;;;;49.00;26.33;;;1.80;76.50;;;0.75;88.57;97358.56;4971816;28;21000;-72
2021/11/25 06:34:01;;;;;;;41.50;24.47;;;2.10;80.80;;;0.64;83.38;97373.03;4973509;28;20487;-72
2021/11/25 06:36:29;;;;;;;41.67;25.53;;;2.20;75.50;;;0.49;86.96;97364.91;4951307;28;20788;-72
2021/11/25 06:38:57;;;;;;;41.10;25.93;;;2.00;78.00;;;0.82;83.71;97364.84;4968512;28;20535;-71
2021/11/25 06:41:24;;;;;;;41.33;27.80;;;2.40;75.80;;;0.69;83.72;97375.22;4964812;28;20480;-70
2021/11/25 06:43:52;;;;;;;44.70;25.40;;;2.30;74.80;;;0.65;85.79;97380.03;4967778;28;20462;-71
2021/11/25 06:46:19;;;;;;;43.70;25.53;;;2.20;76.70;;;0.32;85.00;97376.53;4967893;28;20470;-76
2021/11/25 06:48:46;;;;;;;43.77;25.43;;;2.00;75.30;;;0.41;84.65;97388.84;4965391;28;20461;-72
2021/11/25 06:51:14;;;;;;;42.40;24.60;;;2.00;75.60;;;0.88;85.98;97386.47;4949347;28;20480;-69
2021/11/25 06:53:41;;;;;;;47.97;26.80;;;2.20;79.30;;;1.06;84.51;97387.09;4965765;28;20461;-69
2021/11/25 06:56:11;;;;;;;42.30;26.33;;;2.40;77.30;;;0.93;82.84;97397.44;4946229;28;20453;-69
2021/11/25 06:58:39;;;;;;;39.17;25.13;;;2.50;74.90;;;0.86;82.83;97385.81;4966890;28;20996;-69
2021/11/25 07:01:07;;;;;;;43.23;26.13;;;2.50;74.70;;;0.76;82.97;97386.81;4947380;28;20472;-69
2021/11/25 07:03:35;;;;;;;47.10;26.57;;;2.40;74.50;;;0.96;84.15;97381.13;4968610;28;20524;-69
2021/11/25 07:06:03;;;;;;;43.93;25.57;;;2.40;76.10;;;1.13;82.50;97377.41;4969651;28;20480;-68
2021/11/25 07:08:30;;;;;;;42.30;26.70;;;2.50;75.50;;;1.04;83.30;97378.44;4960953;28;20521;-68
2021/11/25 07:10:58;;;;;;;40.53;26.20;;;2.50;75.60;;;0.79;83.56;97391.78;4959585;28;20457;-67
2021/11/25 07:13:27;;;;;;;43.07;25.20;;;2.40;74.30;;;1.08;83.00;97401.06;4963718;28;20474;-67
2021/11/25 07:15:55;;;;;;;41.73;26.90;;;2.50;75.30;;;0.79;83.48;97386.47;4964532;28;20466;-75
2021/11/25 07:18:22;;;;;;;39.50;25.70;;;2.40;74.40;;;1.07;82.67;97383.44;4981587;28;20453;-71
2021/11/25 07:20:49;;;;;;;46.07;26.03;;;2.60;75.00;;;0.97;82.89;97380.97;4969195;28;20527;-72
2021/11/25 07:23:18;;;;;;;44.37;25.83;;;2.50;74.40;;;1.20;83.91;97377.56;4950726;28;20449;-70
2021/11/25 07:25:45;;;;;;;39.60;26.40;;;2.60;76.60;;;1.05;82.43;97373.94;4967551;28;20469;-71
2021/11/25 07:28:12;;;;;;;44.77;26.83;;;2.60;74.00;;;0.94;82.94;97377.81;4969228;28;20465;-70
2021/11/25 07:30:41;;;;;;;46.43;28.40;;;2.50;74.70;;;0.63;83.65;97383.84;4951376;28;20462;-72
2021/11/25 07:33:08;;;;;;;50.93;32.00;;;2.30;74.00;;;0.59;84.43;97385.19;4947792;28;20464;-71
2021/11/25 07:35:35;;;;;;;48.97;29.87;;;2.20;74.70;;;0.75;84.36;97369.19;4966129;28;20481;-71
2021/11/25 07:38:05;;;;;;;50.20;28.33;;;2.40;75.50;;;0.81;83.64;97379.16;4959303;28;20489;-71
2021/11/25 07:40:32;;;;;;;43.60;26.20;;;2.40;75.10;;;0.68;83.72;97378.84;4964221;28;20520;-71
2021/11/25 07:43:00;;;;;;;48.17;26.17;;;2.30;74.50;;;0.82;83.54;97372.84;4966780;28;20465;-71
2021/11/25 07:45:31;;;;;;;47.30;27.90;;;2.40;75.00;;;0.67;83.49;97377.19;4957211;28;20454;-71
2021/11/25 07:48:00;;;;;;;48.20;27.37;;;2.30;74.30;;;1.12;83.80;97382.91;4964036;28;20555;-70
2021/11/25 07:54:09;;;;;;;52.23;35.93;;;2.40;74.20;;;0.64;83.49;97389.00;4955348;28;20461;-69
2021/11/25 08:00:22;;;;;;;47.27;27.70;;;2.40;77.40;;;1.29;82.28;97381.06;4961129;28;20465;-70
2021/11/25 08:02:49;;;;;;;54.43;26.73;;;2.70;75.20;;;1.35;83.81;97374.19;4946347;28;20533;-69
2021/11/25 08:05:18;;;;;;;47.10;31.35;;;2.80;75.70;;;1.92;83.00;97373.09;4962360;28;20460;-70
2021/11/25 08:07:45;;;;;;;41.50;26.90;;;3.10;76.60;;;1.70;81.28;97377.38;4967028;28;20205;-71
2021/11/25 08:10:14;;;;;;;47.23;27.80;;;3.20;73.80;;;1.51;80.74;97374.13;4970402;28;20479;-71
2021/11/25 08:12:42;;;;;;;66.00;41.33;;;3.10;72.90;;;1.04;82.06;97377.59;4964201;28;20470;-71
2021/11/25 08:15:11;;;;;;;48.57;27.90;;;2.80;72.40;;;0.91;82.73;97365.69;4950889;28;20473;-70
2021/11/25 08:17:38;;;;;;;51.57;31.30;;;2.60;73.00;;;0.89;82.96;97364.19;4963372;28;20474;-70
2021/11/25 08:20:07;;;;;;;54.10;28.57;;;2.50;73.40;;;0.67;83.28;97350.59;4968394;28;20477;-71
2021/11/25 08:22:36;;;;;;;49.57;29.23;;;2.50;73.60;;;0.56;84.63;97373.88;4955737;28;21292;-71
2021/11/25 08:25:06;;;;;;;52.20;30.67;;;2.30;74.60;;;0.41;85.83;97357.75;4970660;28;20968;-69
2021/11/25 08:27:34;;;;;;;44.90;27.73;;;2.10;75.80;;;0.90;83.77;97358.69;4972330;28;20933;-68
2021/11/25 08:30:01;;;;;;;50.20;27.67;;;2.30;76.40;;;1.26;84.34;97365.41;4960307;28;20579;-68
2021/11/25 08:32:28;;;;;;;46.07;28.30;;;2.60;77.10;;;1.01;83.70;97368.16;4953960;28;21034;-68
2021/11/25 08:34:55;;;;;;;49.27;27.97;;;2.50;75.20;;;1.38;83.81;97372.00;4961015;28;20511;-68
2021/11/25 08:37:22;;;;;;;45.27;27.43;;;2.80;76.40;;;1.54;83.09;97362.28;4945527;28;20823;-69
2021/11/25 08:39:51;;;;;;;47.47;26.57;;;3.00;75.80;;;1.65;82.61;97369.91;4967770;28;21465;-70
2021/11/25 08:42:18;;;;;;;45.00;27.43;;;3.10;75.60;;;1.34;80.94;97361.88;4963378;28;20524;-68
2021/11/25 08:44:45;;;;;;;47.73;29.73;;;2.90;72.60;;;1.18;82.35;97365.44;4970275;28;20960;-68
2021/11/25 08:47:12;;;;;;;45.23;27.47;;;2.80;73.40;;;1.52;83.71;97386.44;4969272;28;20461;-67
2021/11/25 08:49:39;;;;;;;46.70;28.20;;;2.80;76.30;;;1.12;81.74;97378.41;4952249;28;20450;-68
2021/11/25 08:52:07;;;;;;;45.93;27.97;;;2.80;73.50;;;1.12;84.26;97380.25;4965347;28;20981;-68
2021/11/25 08:54:34;;;;;;;44.50;26.20;;;2.60;75.60;;;1.49;82.83;97376.13;4967157;28;20454;-67
2021/11/25 08:57:03;;;;;;;44.40;25.70;;;2.80;76.50;;;1.80;83.00;97377.97;4969392;28;20470;-67
2021/11/25 08:59:30;;;;;;;41.40;25.57;;;3.10;75.60;;;1.70;81.34;97378.19;4951029;28;20462;-67
2021/11/25 09:01:57;;;;;;;44.40;27.50;;;3.20;73.40;;;1.74;82.56;97362.69;4965297;28;20516;-68
2021/11/25 09:04:27;;;;;;;42.47;24.87;;;3.20;74.70;;;1.83;82.16;97372.31;4965420;28;20532;-69
2021/11/25 09:06:54;;;;;;;42.67;26.20;;;3.30;74.70;;;1.89;80.24;97383.25;4966560;28;20488;-69
2021/11/25 09:09:22;;;;;;;39.20;23.93;;;3.30;73.10;;;1.81;80.51;97395.59;4957270;28;20560;-68
2021/11/25 09:11:49;;;;;;;35.33;22.50;;;3.30;73.00;;;1.51;78.20;97398.06;4961249;28;20461;-68
2021/11/25 09:14:18;;;;;;;36.13;22.47;;;3.20;69.60;;;1.46;80.31;97386.31;4960548;28;20473;-68
2021/11/25 09:16:47;;;;;;;38.97;24.10;;;3.00;70.90;;;1.35;78.99;97391.00;4961461;28;20466;-68
2021/11/25 09:19:14;;;;;;;39.27;22.40;;;2.90;70.10;;;1.75;82.55;97382.19;4948460;28;20462;-70
2021/11/25 09:21:41;;;;;;;40.87;24.30;;;3.10;74.50;;;1.86;80.51;97380.94;4964235;28;21087;-69
2021/11/25 09:24:10;;;;;;;37.03;23.17;;;3.20;73.00;;;1.73;80.81;97384.16;4951753;28;20458;-68
2021/11/25 09:26:39;;;;;;;39.40;25.50;;;3.20;72.50;;;1.68;78.35;97380.19;4972886;28;20965;-68
2021/11/25 09:29:09;;;;;;;38.13;23.53;;;3.20;70.40;;;1.41;80.92;97369.00;4971344;28;20481;-67
2021/11/25 09:31:39;;;;;;;37.53;24.00;;;3.00;71.90;;;1.43;78.66;97363.50;4969172;28;20487;-68
2021/11/25 09:34:08;;;;;;;39.67;24.13;;;3.00;70.10;;;1.19;79.76;97359.94;4964546;28;20458;-67
2021/11/25 09:36:37;;;;;;;40.77;21.83;;;2.80;70.30;;;1.41;78.86;97347.69;4967019;28;20548;-68
2021/11/25 09:39:07;;;;;;;36.87;22.37;;;2.90;70.10;;;1.41;80.95;97358.34;4949239;28;20473;-68
2021/11/25 09:41:34;;;;;;;35.93;22.77;;;2.80;71.50;;;1.24;78.54;97346.13;4967571;28;21011;-69
2021/11/25 09:44:03;;;;;;;36.17;21.73;;;2.80;69.30;;;1.68;81.99;97348.25;4962765;28;20462;-69
2021/11/25 09:46:30;;;;;;;36.83;22.37;;;3.00;73.50;;;1.89;79.45;97352.09;4962527;28;20457;-69
2021/11/25 09:48:59;;;;;;;41.33;23.80;;;3.20;72.00;;;1.22;78.67;97340.97;4946403;28;20465;-70
2021/11/25 09:51:27;;;;;;;45.07;25.37;;;2.90;69.30;;;1.12;79.35;97341.16;4964601;28;20465;-69
2021/11/25 09:53:55;;;;;;;36.73;22.07;;;2.80;69.50;;;1.18;80.12;97336.19;4962284;28;20537;-69
2021/11/25 09:56:24;;;;;;;41.10;25.87;;;2.70;70.40;;;1.22;80.04;97326.84;4965036;28;20465;-68
2021/11/25 09:58:52;;;;;;;39.73;25.00;;;2.70;70.60;;;1.58;80.52;97309.53;4964200;28;20458;-69
2021/11/25 10:01:23;;;;;;;42.33;25.87;;;2.90;72.70;;;1.66;79.65;97314.78;4951188;28;20489;-68
2021/11/25 10:03:51;;;;;;;43.73;26.87;;;3.10;72.10;;;1.64;79.48;97317.66;4964890;28;20462;-69
2021/11/25 10:06:23;;;;;;;42.07;26.20;;;3.10;71.70;;;1.62;79.02;97311.66;4968694;28;20465;-69
2021/11/25 10:08:52;;;;;;;40.80;25.17;;;3.10;71.10;;;1.63;80.58;97317.81;4971631;28;20473;-69
2021/11/25 10:11:22;;;;;;;47.37;27.87;;;3.10;72.70;;;1.53;81.13;97310.03;4968244;28;20465;-70
2021/11/25 10:13:54;;;;;;;46.13;26.63;;;3.10;71.90;;;1.54;78.99;97309.88;4968983;28;21029;-71
2021/11/25 10:16:28;;;;;;;39.53;26.40;;;3.00;70.60;;;1.48;78.98;97299.91;4968280;28;20548;-70
2021/11/25 10:18:55;;;;;;;45.97;26.60;;;3.00;70.20;;;1.38;79.96;97307.31;4956322;28;20466;-77
2021/11/25 10:21:26;;;;;;;41.77;27.57;;;2.90;71.00;;;1.47;79.21;97292.94;4961944;28;22246;-73
2021/11/25 10:23:57;;;;;;;45.40;26.03;;;2.90;70.30;;;1.42;79.37;97295.31;4964520;28;20454;-72
2021/11/25 10:26:27;;;;;;;42.97;27.13;;;2.90;70.30;;;1.29;80.46;97295.03;4970480;28;20473;-71
2021/11/25 10:28:57;;;;;;;43.60;26.40;;;2.90;70.70;;;1.32;80.60;97300.84;4967880;28;20460;-72
2021/11/25 10:31:30;;;;;;;46.17;31.98;;;2.90;70.80;;;1.12;80.70;97295.94;4959122;28;20457;-75
2021/11/25 10:34:02;;;;;;;44.80;28.43;;;2.80;70.80;;;1.51;82.53;97309.41;4967460;28;20190;-75